Time;durP1;ratioP1;P1;durP2;ratioP2;P2;SDS_P1;SDS_P2;PMS_P1;PMS_P2;Temp;Humidity;BMP_temperature;BMP_pressure;BME280_temperature;BME280_humidity;BME280_pressure;Samples;Min_cycle;Max_cycle;Signal;HPM_P1;HPM_P2
2023/03/05 00:02:23;;;;;;;30.00;15.70;;;9.00;99.90;;;8.81;64.69;94499.47;5042307;28;20476;-59
2023/03/05 00:04:51;;;;;;;25.63;14.73;;;8.90;99.90;;;8.79;64.61;94501.41;5033955;28;20486;-59
2023/03/05 00:07:18;;;;;;;28.20;15.40;;;8.90;99.90;;;8.77;64.81;94498.94;5041280;28;21050;-57
2023/03/05 00:09:45;;;;;;;27.50;14.87;;;8.90;99.90;;;8.76;65.08;94497.28;5032255;28;20457;-59
2023/03/05 00:12:12;;;;;;;30.13;15.60;;;8.90;99.90;;;8.74;65.44;94498.41;5034143;28;20527;-57
2023/03/05 00:14:40;;;;;;;29.43;15.57;;;8.90;99.90;;;8.74;65.52;94493.16;5039465;28;20456;-58
2023/03/05 00:17:08;;;;;;;39.87;16.70;;;8.90;99.90;;;8.74;65.28;94493.16;5034614;28;20476;-60
2023/03/05 00:19:36;;;;;;;31.27;16.53;;;8.90;99.90;;;8.73;65.90;94492.31;5035263;28;20461;-57
2023/03/05 00:22:03;;;;;;;28.47;15.67;;;8.90;99.90;;;8.73;66.11;94484.44;5037691;28;21060;-58
2023/03/05 00:24:30;;;;;;;25.60;15.50;;;8.90;99.90;;;8.73;65.65;94486.25;5041715;28;20452;-57
2023/03/05 00:26:57;;;;;;;25.83;15.60;;;8.90;99.90;;;8.74;65.49;94485.28;5033536;28;20480;-59
2023/03/05 00:29:26;;;;;;;31.57;15.90;;;8.90;99.90;;;8.74;65.52;94488.72;5039255;28;20876;-59
2023/03/05 00:31:53;;;;;;;27.67;15.53;;;8.90;99.90;;;8.74;65.31;94482.66;5035443;28;20482;-60
2023/03/05 00:34:24;;;;;;;35.70;14.83;;;8.90;99.90;;;8.73;65.43;94483.63;5038349;28;20515;-59
2023/03/05 00:36:52;;;;;;;28.70;14.57;;;8.90;99.90;;;8.73;65.01;94478.38;5033740;28;20551;-57
2023/03/05 00:39:20;;;;;;;27.60;14.67;;;8.90;99.90;;;8.75;65.39;94479.06;5034735;28;20466;-58
2023/03/05 00:41:47;;;;;;;26.50;14.50;;;8.90;99.90;;;8.76;65.64;94475.47;5034105;28;20492;-58
2023/03/05 00:44:14;;;;;;;24.27;14.13;;;8.90;99.90;;;8.77;65.35;94471.91;5035091;28;20826;-58
2023/03/05 00:46:41;;;;;;;25.47;14.20;;;8.90;99.90;;;8.77;65.68;94464.84;5039278;28;20468;-59
2023/03/05 00:49:09;;;;;;;29.30;15.03;;;8.90;99.90;;;8.78;65.67;94465.66;5035698;28;20468;-60
2023/03/05 00:51:37;;;;;;;21.80;12.67;;;8.90;99.90;;;8.78;64.82;94458.66;5031175;28;20530;-59
2023/03/05 00:54:05;;;;;;;26.57;14.70;;;8.90;99.90;;;8.78;64.80;94463.03;5036292;28;20491;-58
2023/03/05 00:56:32;;;;;;;27.57;14.67;;;8.90;99.90;;;8.76;63.81;94455.31;5030998;28;20483;-58
2023/03/05 00:58:59;;;;;;;21.97;14.27;;;8.90;99.90;;;8.75;63.58;94447.59;5034344;28;21039;-59
2023/03/05 01:01:27;;;;;;;24.77;12.80;;;8.90;99.90;;;8.70;63.80;94450.63;5037439;28;21090;-58
2023/03/05 01:03:56;;;;;;;24.97;14.17;;;8.90;99.90;;;8.68;63.92;94446.50;5034556;28;20457;-58
2023/03/05 01:06:24;;;;;;;27.10;15.80;;;8.80;99.90;;;8.68;64.08;94444.72;5032051;28;20471;-57
2023/03/05 01:08:53;;;;;;;24.47;14.50;;;8.80;99.90;;;8.68;63.83;94446.50;5033753;28;20457;-58
2023/03/05 01:11:20;;;;;;;27.10;13.83;;;8.80;99.90;;;8.67;63.73;94444.84;5035192;28;20477;-60
2023/03/05 01:13:47;;;;;;;28.00;15.70;;;8.80;99.90;;;8.66;64.22;94440.56;5032065;28;20460;-59
2023/03/05 01:16:15;;;;;;;25.03;14.53;;;8.80;99.90;;;8.65;63.87;94447.59;5036970;28;20464;-59
2023/03/05 01:18:42;;;;;;;25.73;14.20;;;8.80;99.90;;;8.64;64.76;94442.50;5034662;28;20507;-58
2023/03/05 01:21:09;;;;;;;28.23;15.00;;;8.80;99.90;;;8.65;64.24;94446.78;5033143;28;20516;-59
2023/03/05 01:23:37;;;;;;;29.33;15.30;;;8.80;99.90;;;8.68;64.00;94451.75;5037581;28;20457;-58
2023/03/05 01:26:07;;;;;;;30.20;15.13;;;8.80;99.90;;;8.67;64.19;94444.84;5035804;28;20455;-58
2023/03/05 01:28:34;;;;;;;28.37;15.47;;;8.80;99.90;;;8.68;64.03;94431.59;5030793;28;20448;-60
2023/03/05 01:31:02;;;;;;;38.03;14.13;;;8.80;99.90;;;8.70;64.14;94439.31;5031930;28;21169;-59
2023/03/05 01:33:29;;;;;;;32.63;14.57;;;8.80;99.90;;;8.70;64.12;94441.94;5035124;28;20460;-58
2023/03/05 01:35:56;;;;;;;32.37;14.90;;;8.80;99.90;;;8.69;62.65;94430.66;5038481;28;20534;-59
2023/03/05 01:38:24;;;;;;;28.20;13.47;;;8.80;99.90;;;8.69;63.52;94432.41;5036296;28;20464;-59
2023/03/05 01:40:51;;;;;;;26.17;14.33;;;8.80;99.90;;;8.68;63.24;94428.16;5037222;28;20495;-58
2023/03/05 01:43:28;;;;;;;19.83;12.23;;;8.80;99.90;;;8.65;63.15;94433.69;5035326;28;20452;-59
2023/03/05 01:46:34;;;;;;;26.30;13.03;;;8.80;99.90;;;8.64;62.13;94421.53;5040498;28;21452;-58
2023/03/05 01:49:19;;;;;;;25.10;13.87;;;8.80;99.90;;;8.62;62.87;94421.66;5031449;28;21062;-58
2023/03/05 01:51:53;;;;;;;23.40;12.20;;;8.70;99.90;;;8.59;62.32;94428.00;5037898;28;20569;-59
2023/03/05 01:54:21;;;;;;;25.57;13.50;;;8.80;99.80;;;8.59;62.34;94422.75;5029029;28;20452;-58
2023/03/05 01:56:50;;;;;;;23.50;14.03;;;8.70;99.80;;;8.57;62.57;94424.72;5036147;28;20985;-58
2023/03/05 01:59:18;;;;;;;27.07;14.07;;;8.70;99.70;;;8.58;62.79;94436.84;5033308;28;20899;-58
2023/03/05 02:01:48;;;;;;;22.43;12.67;;;8.70;99.90;;;8.56;62.34;94433.53;5040726;28;21227;-59
2023/03/05 02:04:17;;;;;;;19.87;13.17;;;8.70;99.70;;;8.55;62.10;94434.50;5032149;28;21095;-59
2023/03/05 02:06:44;;;;;;;24.70;13.63;;;8.70;99.70;;;8.54;62.75;94424.16;5035142;28;20550;-58
2023/03/05 02:09:12;;;;;;;25.50;13.80;;;8.70;99.90;;;8.52;62.49;94426.06;5029698;28;20457;-58
2023/03/05 02:11:39;;;;;;;31.27;14.90;;;8.70;99.90;;;8.50;62.47;94426.22;5032949;28;20476;-58
2023/03/05 02:14:06;;;;;;;26.70;14.63;;;8.70;99.80;;;8.49;63.18;94431.59;5033168;28;21187;-58
2023/03/05 02:16:35;;;;;;;28.07;15.30;;;8.60;99.90;;;8.48;63.30;94429.97;5037971;28;20486;-58
2023/03/05 02:19:03;;;;;;;25.53;15.50;;;8.60;99.90;;;8.47;62.63;94430.91;5035922;28;21064;-58
2023/03/05 02:21:37;;;;;;;30.70;16.57;;;8.60;99.90;;;8.45;63.34;94436.28;5041001;28;20499;-59
2023/03/05 02:24:05;;;;;;;20.53;13.50;;;8.60;99.90;;;8.43;63.01;94438.19;5038584;28;20495;-60
2023/03/05 02:26:32;;;;;;;30.57;15.13;;;8.50;99.90;;;8.41;63.23;94430.47;5034789;28;20472;-59
2023/03/05 02:29:01;;;;;;;27.07;14.77;;;8.50;99.90;;;8.40;63.26;94434.06;5036761;28;20466;-58
2023/03/05 02:31:29;;;;;;;28.40;15.13;;;8.50;99.90;;;8.41;63.24;94430.47;5042947;28;20470;-59
2023/03/05 02:33:57;;;;;;;29.43;14.80;;;8.50;99.90;;;8.40;62.44;94433.22;5039711;28;20494;-59
2023/03/05 02:36:24;;;;;;;28.07;16.23;;;8.50;99.90;;;8.39;62.53;94436.81;5036656;28;20483;-60
2023/03/05 02:38:55;;;;;;;31.87;16.10;;;8.50;99.90;;;8.35;63.05;94438.88;5038086;28;20936;-58
2023/03/05 02:41:23;;;;;;;30.93;16.20;;;8.50;99.90;;;8.33;63.19;94438.19;5036637;28;20520;-58
2023/03/05 02:43:50;;;;;;;33.53;16.13;;;8.50;99.90;;;8.32;62.80;94435.69;5035716;28;20460;-59
2023/03/05 02:46:17;;;;;;;22.97;15.43;;;8.50;99.90;;;8.31;62.84;94434.06;5038669;28;20471;-59
2023/03/05 02:48:45;;;;;;;26.63;15.27;;;8.50;99.90;;;8.31;62.99;94439.28;5034656;28;20548;-57
2023/03/05 02:51:12;;;;;;;33.37;15.90;;;8.40;99.90;;;8.31;62.69;94431.44;5038670;28;20483;-58
2023/03/05 02:53:39;;;;;;;34.97;16.50;;;8.50;99.90;;;8.30;63.04;94440.25;5037188;28;20463;-59
2023/03/05 02:56:08;;;;;;;29.77;16.60;;;8.40;99.90;;;8.30;63.03;94441.06;5039830;28;20517;-58
2023/03/05 02:58:35;;;;;;;35.60;17.90;;;8.40;99.90;;;8.28;62.55;94440.38;5037061;28;21062;-59
2023/03/05 03:01:02;;;;;;;29.83;16.57;;;8.40;99.90;;;8.25;62.81;94438.03;5035671;28;20502;-59
2023/03/05 03:03:30;;;;;;;29.43;16.53;;;8.40;99.90;;;8.23;62.39;94439.97;5040456;28;20529;-58
2023/03/05 03:05:57;;;;;;;36.60;16.37;;;8.30;99.70;;;8.21;62.38;94450.59;5035893;28;20993;-59
2023/03/05 03:08:24;;;;;;;31.67;16.23;;;8.40;99.60;;;8.18;62.49;94450.88;5037338;28;20463;-58
2023/03/05 03:10:52;;;;;;;30.53;16.67;;;8.30;99.70;;;8.16;62.87;94444.91;5039771;28;20456;-58
2023/03/05 03:13:20;;;;;;;33.70;14.87;;;8.30;99.80;;;8.15;62.67;94451.13;5035633;28;20447;-59
2023/03/05 03:15:47;;;;;;;36.47;18.07;;;8.30;99.80;;;8.16;62.85;94450.16;5040192;28;20764;-59
2023/03/05 03:18:15;;;;;;;27.93;15.43;;;8.30;99.90;;;8.15;62.67;94442.44;5038983;28;20475;-57
2023/03/05 03:20:42;;;;;;;32.60;16.90;;;8.30;99.90;;;8.12;62.02;94438.31;5037275;28;20452;-59
2023/03/05 03:23:10;;;;;;;30.97;16.53;;;8.30;99.50;;;8.08;62.83;94442.97;5038702;28;20468;-58
2023/03/05 03:25:37;;;;;;;28.73;15.00;;;8.30;99.80;;;8.07;62.85;94443.09;5035763;28;20453;-59
2023/03/05 03:28:04;;;;;;;36.87;16.90;;;8.20;99.90;;;8.06;62.57;94442.28;5039743;28;20537;-58
2023/03/05 03:30:33;;;;;;;33.20;15.97;;;8.20;99.90;;;8.07;63.02;94443.09;5043171;28;20463;-58
2023/03/05 03:33:00;;;;;;;28.20;16.63;;;8.20;99.90;;;8.06;62.40;94444.09;5037625;28;20996;-58
2023/03/05 03:35:27;;;;;;;29.90;15.40;;;8.20;99.90;;;8.05;62.23;94437.19;5037544;28;20801;-60
2023/03/05 03:37:54;;;;;;;39.40;18.90;;;8.20;99.70;;;8.02;62.73;94446.13;5032124;28;20500;-60
2023/03/05 03:40:22;;;;;;;46.47;19.10;;;8.20;99.90;;;8.01;63.30;94443.63;5039920;28;20445;-58
2023/03/05 03:42:51;;;;;;;39.53;18.13;;;8.10;99.90;;;8.02;63.21;94443.50;5039548;28;20522;-58
2023/03/05 03:45:20;;;;;;;30.93;17.03;;;8.20;99.90;;;8.03;63.16;94444.34;5036074;28;20452;-59
2023/03/05 03:47:49;;;;;;;32.20;17.40;;;8.20;99.90;;;8.03;62.65;94453.03;5037935;28;20978;-58
2023/03/05 03:50:17;;;;;;;32.77;18.17;;;8.20;99.90;;;8.01;62.77;94446.25;5038398;28;20906;-59
2023/03/05 03:52:44;;;;;;;28.97;17.60;;;8.10;99.90;;;7.99;62.64;94450.81;5033670;28;20509;-59
2023/03/05 03:55:11;;;;;;;36.00;18.03;;;8.10;99.90;;;7.96;62.67;94446.66;5033255;28;20487;-59
2023/03/05 03:57:39;;;;;;;32.03;17.50;;;8.10;99.90;;;7.95;62.58;94446.78;5040176;28;20491;-60
2023/03/05 04:00:09;;;;;;;31.17;17.97;;;8.10;99.90;;;7.94;63.31;94439.94;5040657;28;20527;-59
2023/03/05 04:02:36;;;;;;;30.77;16.10;;;8.10;99.90;;;7.93;62.91;94439.06;5033226;28;20550;-60
2023/03/05 04:05:06;;;;;;;33.70;19.00;;;8.10;99.90;;;7.93;62.93;94446.94;5041923;28;20459;-58
2023/03/05 04:07:33;;;;;;;33.10;17.67;;;8.10;99.90;;;7.94;63.21;94442.53;5036062;28;20479;-60
2023/03/05 04:10:00;;;;;;;32.07;17.37;;;8.10;99.90;;;7.92;62.70;94440.06;5034174;28;20475;-58
2023/03/05 04:12:27;;;;;;;33.67;18.67;;;8.10;99.90;;;7.92;62.91;94442.69;5037812;28;20480;-57
2023/03/05 04:14:54;;;;;;;37.97;16.87;;;8.10;99.90;;;7.92;62.87;94444.44;5037254;28;20486;-59
2023/03/05 04:17:22;;;;;;;33.80;18.23;;;8.10;99.90;;;7.90;62.48;94448.03;5031651;28;20473;-58
2023/03/05 04:19:49;;;;;;;32.80;18.40;;;8.10;99.90;;;7.87;62.73;94450.13;5030010;28;20464;-58
2023/03/05 04:22:18;;;;;;;47.93;17.30;;;8.10;99.90;;;7.86;63.24;94454.50;5039599;28;20899;-58
2023/03/05 04:24:45;;;;;;;32.80;17.50;;;8.00;99.90;;;7.86;62.22;94453.69;5033115;28;20461;-59
2023/03/05 04:27:12;;;;;;;33.27;18.60;;;8.00;99.80;;;7.82;63.27;94447.91;5032254;28;20468;-58
2023/03/05 04:29:40;;;;;;;29.60;16.93;;;8.00;99.90;;;7.83;62.63;94446.09;5033717;28;21021;-58
2023/03/05 04:32:07;;;;;;;36.13;18.73;;;8.00;99.90;;;7.82;62.94;94440.03;5040092;28;20480;-60
2023/03/05 04:34:34;;;;;;;36.60;16.83;;;8.00;99.90;;;7.83;62.66;94449.53;5034229;28;20460;-58
2023/03/05 04:37:02;;;;;;;39.40;16.93;;;8.00;99.90;;;7.84;62.99;94447.75;5035039;28;20567;-60
2023/03/05 04:39:30;;;;;;;33.83;18.00;;;8.00;99.90;;;7.85;62.59;94439.78;5033906;28;20542;-59
2023/03/05 04:41:58;;;;;;;33.00;16.47;;;8.00;99.70;;;7.83;62.36;94452.16;5033755;28;20593;-58
2023/03/05 04:44:25;;;;;;;40.27;19.47;;;8.00;99.40;;;7.81;62.55;94453.25;5035105;28;20550;-62
2023/03/05 04:46:52;;;;;;;38.17;17.10;;;7.90;99.70;;;7.79;62.22;94456.00;5034125;28;20476;-59
2023/03/05 04:49:19;;;;;;;28.20;16.83;;;8.00;99.70;;;7.80;62.92;94451.59;5034027;28;20535;-60
2023/03/05 04:51:47;;;;;;;28.27;16.87;;;7.90;99.90;;;7.80;62.72;94449.81;5030448;28;21182;-61
2023/03/05 04:54:14;;;;;;;28.80;16.97;;;7.90;99.90;;;7.82;62.44;94442.66;5039460;28;20527;-58
2023/03/05 04:56:43;;;;;;;32.47;17.10;;;8.00;99.90;;;7.81;62.26;94448.84;5033939;28;20477;-58
2023/03/05 04:59:10;;;;;;;33.07;17.37;;;8.00;99.60;;;7.79;62.12;94440.31;5039960;28;20468;-58
2023/03/05 05:01:37;;;;;;;35.17;16.00;;;7.90;99.60;;;7.79;62.47;94448.16;5039061;28;20549;-60
2023/03/05 05:04:04;;;;;;;35.10;17.70;;;7.90;99.40;;;7.78;62.38;94448.28;5040185;28;20508;-60
2023/03/05 05:06:32;;;;;;;27.37;14.90;;;7.90;99.30;;;7.75;61.93;94438.91;5037557;28;20988;-60
2023/03/05 05:08:59;;;;;;;36.73;17.23;;;7.90;99.30;;;7.75;62.28;94441.53;5033351;28;20455;-59
2023/03/05 05:11:26;;;;;;;25.43;15.67;;;7.90;99.40;;;7.73;62.50;94443.47;5037299;28;20472;-59
2023/03/05 05:13:55;;;;;;;38.90;17.47;;;7.90;99.50;;;7.73;62.47;94446.06;5029703;28;20854;-60
2023/03/05 05:16:22;;;;;;;36.83;17.93;;;7.90;99.30;;;7.70;61.97;94447.16;5030883;28;20467;-60
2023/03/05 05:18:49;;;;;;;28.53;15.60;;;7.90;99.30;;;7.69;61.84;94448.09;5036863;28;20905;-58
2023/03/05 05:21:17;;;;;;;37.27;16.37;;;7.90;99.40;;;7.68;61.84;94443.84;5041023;28;20479;-59
2023/03/05 05:23:44;;;;;;;31.90;17.03;;;7.80;99.30;;;7.68;62.35;94438.63;5039184;28;20488;-60
2023/03/05 05:26:13;;;;;;;31.80;17.03;;;7.90;99.50;;;7.69;62.07;94449.91;5038417;28;20903;-59
2023/03/05 05:28:41;;;;;;;37.17;18.57;;;7.80;99.30;;;7.71;62.33;94442.75;5039340;28;20460;-60
2023/03/05 05:31:11;;;;;;;31.73;17.07;;;7.90;99.80;;;7.74;61.99;94458.19;5035700;28;21054;-59
2023/03/05 05:33:38;;;;;;;34.70;15.67;;;7.90;99.30;;;7.77;62.11;94451.88;5032754;28;20969;-59
2023/03/05 05:36:07;;;;;;;41.90;18.43;;;7.90;99.30;;;7.79;62.42;94449.94;5035576;28;21031;-59
2023/03/05 05:38:34;;;;;;;31.10;16.33;;;7.90;99.40;;;7.81;62.25;94454.09;5034115;28;20452;-60
2023/03/05 05:41:04;;;;;;;29.37;16.20;;;8.00;99.40;;;7.82;62.00;94445.28;5038660;28;21334;-58
2023/03/05 05:43:31;;;;;;;34.27;16.97;;;8.00;99.40;;;7.85;61.55;94455.47;5037580;28;20570;-60
2023/03/05 05:46:00;;;;;;;28.57;16.40;;;8.00;99.10;;;7.88;61.91;94459.59;5030897;28;20453;-60
2023/03/05 05:48:30;;;;;;;32.40;17.70;;;8.00;99.20;;;7.89;61.14;94464.72;5037861;28;20519;-60
2023/03/05 05:50:57;;;;;;;28.30;14.67;;;8.00;98.80;;;7.91;61.17;94461.97;5035742;28;20974;-59
2023/03/05 05:53:24;;;;;;;33.30;15.23;;;8.00;99.20;;;7.96;61.78;94461.56;5040962;28;20964;-59
2023/03/05 05:55:51;;;;;;;38.43;16.57;;;8.10;98.90;;;7.99;61.21;94463.91;5030806;28;20445;-62
2023/03/05 05:58:19;;;;;;;32.73;16.70;;;8.10;98.70;;;8.03;61.38;94467.94;5036759;28;20745;-60
2023/03/05 06:00:46;;;;;;;28.00;15.03;;;8.20;98.60;;;8.07;60.97;94464.06;5032109;28;20476;-58
2023/03/05 06:03:13;;;;;;;32.57;16.13;;;8.20;98.90;;;8.14;61.24;94472.22;5032613;28;20522;-60
2023/03/05 06:05:43;;;;;;;33.23;16.03;;;8.30;98.70;;;8.17;60.91;94470.16;5035598;28;20443;-59
2023/03/05 06:08:10;;;;;;;31.17;16.23;;;8.30;98.50;;;8.22;60.67;94473.19;5040510;28;20467;-58
2023/03/05 06:10:37;;;;;;;33.60;15.90;;;8.30;98.20;;;8.25;59.37;94472.91;5037136;28;20462;-60
2023/03/05 06:13:04;;;;;;;25.30;14.73;;;8.40;97.60;;;8.28;60.19;94471.81;5034619;28;20471;-58
2023/03/05 06:15:32;;;;;;;32.30;14.67;;;8.40;97.80;;;8.33;60.05;94479.28;5042158;28;20519;-61
2023/03/05 06:17:59;;;;;;;29.63;15.00;;;8.40;97.70;;;8.35;59.32;94478.19;5035719;28;20578;-60
2023/03/05 06:20:27;;;;;;;29.90;16.53;;;8.50;97.50;;;8.36;59.47;94485.06;5036545;28;20452;-58
2023/03/05 06:22:55;;;;;;;33.83;16.27;;;8.50;97.50;;;8.40;59.34;94477.78;5041724;28;21046;-60
2023/03/05 06:25:23;;;;;;;30.67;15.40;;;8.50;97.50;;;8.44;59.36;94476.56;5037017;28;20472;-59
2023/03/05 06:27:50;;;;;;;28.73;14.90;;;8.50;97.20;;;8.46;58.83;94479.88;5039987;28;20472;-60
2023/03/05 06:30:18;;;;;;;26.13;15.80;;;8.60;96.70;;;8.48;58.99;94477.94;5035049;28;20610;-59
2023/03/05 06:32:45;;;;;;;28.57;15.50;;;8.60;97.00;;;8.51;59.49;94485.53;5036092;28;21074;-60
2023/03/05 06:35:12;;;;;;;29.27;14.57;;;8.60;96.90;;;8.52;58.58;94484.59;5026943;28;20507;-60
2023/03/05 06:37:40;;;;;;;35.67;16.70;;;8.70;96.70;;;8.56;58.59;94485.94;5034739;28;20485;-60
2023/03/05 06:40:10;;;;;;;24.80;15.60;;;8.70;96.60;;;8.57;57.39;94490.25;5033920;28;20465;-60
2023/03/05 06:42:38;;;;;;;30.40;14.90;;;8.70;96.00;;;8.60;58.30;94497.00;5040200;28;20500;-59
2023/03/05 06:45:07;;;;;;;37.10;15.13;;;8.70;96.50;;;8.65;58.55;94488.72;5029577;28;20964;-62
2023/03/05 06:47:34;;;;;;;28.50;14.20;;;8.80;96.60;;;8.71;57.86;94490.81;5034791;28;20834;-58
2023/03/05 06:50:01;;;;;;;27.10;15.40;;;8.80;96.00;;;8.74;57.22;94490.53;5035610;28;20453;-60
2023/03/05 06:52:28;;;;;;;28.93;14.23;;;8.80;95.70;;;8.79;57.33;94497.00;5031399;28;20891;-60
2023/03/05 06:54:56;;;;;;;23.40;14.13;;;8.90;95.70;;;8.87;57.97;94500.72;5034123;28;20443;-58
2023/03/05 06:57:24;;;;;;;28.67;15.10;;;9.00;96.10;;;8.93;57.05;94494.94;5037626;28;20928;-58
2023/03/05 06:59:52;;;;;;;26.03;14.90;;;9.00;95.40;;;9.00;57.10;94493.41;5035243;28;20455;-61
2023/03/05 07:02:19;;;;;;;34.27;14.87;;;9.10;95.50;;;9.07;55.63;94493.69;5034066;28;20492;-60
2023/03/05 07:04:47;;;;;;;26.00;15.13;;;9.20;94.20;;;9.09;56.53;94502.22;5038257;28;20876;-61
2023/03/05 07:07:14;;;;;;;28.13;14.80;;;9.20;94.70;;;9.16;56.40;94511.22;5037365;28;20510;-60
2023/03/05 07:09:44;;;;;;;30.03;17.33;;;9.30;94.70;;;9.22;55.76;94505.41;5033430;28;20464;-59
2023/03/05 07:12:12;;;;;;;28.67;15.23;;;9.30;94.40;;;9.40;56.04;94504.66;5039116;28;20888;-61
2023/03/05 07:14:40;;;;;;;30.27;16.83;;;9.40;94.80;;;9.62;56.31;94514.84;5038789;28;20545;-59
2023/03/05 07:17:08;;;;;;;31.67;15.97;;;9.60;94.80;;;10.01;56.03;94503.38;5040753;28;20480;-60
2023/03/05 07:19:35;;;;;;;28.47;16.40;;;10.00;94.50;;;10.60;55.49;94514.41;5038709;28;20461;-60
2023/03/05 07:22:02;;;;;;;29.80;17.00;;;10.40;94.30;;;11.25;54.84;94505.44;5034317;28;20534;-61
2023/03/05 07:24:29;;;;;;;27.90;16.30;;;11.00;94.00;;;11.91;54.75;94505.84;5039866;28;20564;-60
2023/03/05 07:26:57;;;;;;;28.37;17.10;;;11.70;94.00;;;12.43;52.82;94503.13;5038139;28;20549;-60
2023/03/05 07:29:24;;;;;;;32.27;17.20;;;12.20;92.10;;;12.74;52.19;94505.19;5037111;28;20484;-61
2023/03/05 07:31:53;;;;;;;31.93;16.83;;;12.60;91.20;;;12.89;50.93;94500.13;5036917;28;20477;-61
2023/03/05 07:34:20;;;;;;;32.97;16.67;;;12.80;88.70;;;12.98;50.57;94496.50;5041474;28;20484;-60
2023/03/05 07:36:50;;;;;;;29.87;17.50;;;13.00;88.70;;;13.12;51.02;94508.22;5039513;28;20896;-60
2023/03/05 07:39:18;;;;;;;37.37;18.13;;;13.10;88.50;;;13.20;49.94;94496.81;5036652;28;20445;-60
2023/03/05 07:41:46;;;;;;;33.00;18.40;;;13.20;85.20;;;13.22;49.48;94495.66;5039898;28;20570;-62
2023/03/05 07:44:13;;;;;;;38.33;19.30;;;13.30;84.50;;;13.26;49.67;94488.22;5035173;28;20518;-62
2023/03/05 07:46:40;;;;;;;40.43;19.90;;;13.30;85.30;;;13.28;48.84;94487.06;5037532;28;20471;-60
2023/03/05 07:49:09;;;;;;;31.67;18.90;;;13.30;81.90;;;13.24;46.19;94493.66;5037623;28;20448;-60
2023/03/05 07:51:36;;;;;;;29.43;17.10;;;13.30;76.10;;;13.18;47.82;94496.16;5039525;28;20480;-60
2023/03/05 07:54:04;;;;;;;32.00;18.03;;;13.30;78.10;;;13.16;47.56;94498.97;5033559;28;20457;-60
2023/03/05 07:56:34;;;;;;;27.90;17.50;;;13.30;77.50;;;13.20;47.96;94492.38;5044091;28;20468;-60
2023/03/05 07:59:02;;;;;;;55.43;20.03;;;13.30;78.50;;;13.34;48.26;94488.28;5043387;28;20456;-61
2023/03/05 08:01:29;;;;;;;30.37;17.50;;;13.40;79.10;;;13.43;47.89;94495.19;5039589;28;20479;-58
2023/03/05 08:03:56;;;;;;;32.90;18.20;;;13.50;78.30;;;13.45;47.47;94495.84;5032067;28;20492;-59
2023/03/05 08:06:25;;;;;;;35.03;18.40;;;13.50;76.70;;;13.43;44.69;94497.00;5036249;28;20471;-59
2023/03/05 08:08:52;;;;;;;37.27;17.97;;;13.50;71.10;;;13.31;46.61;94485.94;5039591;28;21000;-59
2023/03/05 08:11:19;;;;;;;26.90;15.90;;;13.40;74.10;;;13.27;46.97;94487.25;5030481;28;20494;-61
2023/03/05 08:13:47;;;;;;;35.37;17.73;;;13.40;75.00;;;13.24;46.59;94493.66;5033128;28;20473;-60
2023/03/05 08:16:16;;;;;;;27.77;16.40;;;13.30;74.20;;;13.16;44.99;94487.59;5037974;28;20521;-60
2023/03/05 08:18:43;;;;;;;28.67;17.37;;;13.20;70.50;;;13.04;45.65;94485.28;5035437;28;20453;-59
2023/03/05 08:21:17;;;;;;;31.30;18.17;;;13.10;71.00;;;12.96;46.56;94485.25;5031823;28;20873;-59
2023/03/05 08:23:45;;;;;;;31.10;16.47;;;13.00;73.00;;;13.00;46.80;94483.13;5036933;28;20484;-59
2023/03/05 08:26:14;;;;;;;35.60;19.17;;;13.00;74.20;;;13.13;46.73;94487.91;5032308;28;20476;-62
2023/03/05 08:28:41;;;;;;;40.73;17.80;;;13.10;73.80;;;13.22;46.14;94492.22;5037522;28;20864;-60
2023/03/05 08:31:11;;;;;;;34.50;18.53;;;13.20;72.60;;;13.28;46.67;94484.44;5038330;28;20467;-59
2023/03/05 08:33:38;;;;;;;30.17;18.83;;;13.30;73.40;;;13.31;46.98;94475.38;5041876;28;20456;-59
2023/03/05 08:36:08;;;;;;;33.87;18.37;;;13.30;73.60;;;13.34;46.29;94474.22;5037117;28;20968;-60
2023/03/05 08:38:35;;;;;;;34.27;19.20;;;13.30;72.40;;;13.42;46.19;94474.22;5033720;28;20775;-61
2023/03/05 08:41:04;;;;;;;31.67;17.67;;;13.40;72.80;;;13.57;46.21;94474.34;5040091;28;20440;-61
2023/03/05 08:43:32;;;;;;;36.40;19.33;;;13.50;73.40;;;13.79;46.18;94467.56;5029590;28;20518;-59
2023/03/05 08:46:00;;;;;;;33.73;18.93;;;13.70;72.80;;;13.97;45.48;94476.09;5039495;28;20463;-59
2023/03/05 08:48:28;;;;;;;33.50;18.80;;;13.90;71.80;;;14.08;45.41;94468.75;5035840;28;20465;-60
2023/03/05 08:50:55;;;;;;;36.93;19.70;;;14.00;71.60;;;14.09;44.67;94465.13;5034253;28;20538;-60
2023/03/05 08:53:23;;;;;;;28.60;17.70;;;14.00;70.10;;;14.02;44.18;94458.88;5032765;28;20479;-59
2023/03/05 08:55:54;;;;;;;34.60;19.40;;;14.00;68.10;;;13.91;45.10;94454.78;5037782;28;20452;-60
2023/03/05 08:58:23;;;;;;;32.77;17.73;;;14.00;69.50;;;13.81;44.80;94454.97;5035646;28;21005;-60
2023/03/05 09:00:50;;;;;;;35.90;19.03;;;13.90;68.70;;;13.71;44.36;94459.63;5039419;28;20460;-58
2023/03/05 09:03:18;;;;;;;28.30;18.00;;;13.80;68.30;;;13.68;45.28;94454.69;5036529;28;20485;-60
2023/03/05 09:05:45;;;;;;;28.37;16.70;;;13.70;69.40;;;13.69;44.75;94448.41;5030604;28;20534;-60
2023/03/05 09:08:12;;;;;;;34.57;17.83;;;13.70;68.90;;;13.75;44.41;94450.38;5038071;28;20506;-59
2023/03/05 09:10:41;;;;;;;28.87;18.27;;;13.70;67.80;;;13.82;44.82;94443.44;5041689;28;21017;-59
2023/03/05 09:13:09;;;;;;;35.83;18.10;;;13.80;68.70;;;13.91;44.87;94437.13;5042125;28;20651;-59
2023/03/05 09:15:38;;;;;;;34.43;16.97;;;13.90;68.50;;;13.99;43.94;94436.25;5037270;28;20449;-62
2023/03/05 09:18:05;;;;;;;30.27;16.97;;;13.90;66.80;;;14.03;43.36;94432.25;5040465;28;20529;-58
2023/03/05 09:20:33;;;;;;;27.77;18.10;;;14.00;66.30;;;14.03;43.67;94429.63;5035181;28;20460;-59
2023/03/05 09:23:00;;;;;;;27.57;17.77;;;14.00;66.00;;;13.99;43.35;94437.06;5027060;28;20607;-59
2023/03/05 09:25:27;;;;;;;29.03;16.43;;;14.00;65.30;;;13.91;43.58;94428.34;5032737;28;20457;-59
2023/03/05 09:27:55;;;;;;;26.23;16.27;;;14.00;65.60;;;13.82;43.19;94430.22;5035836;28;20467;-60
2023/03/05 09:30:22;;;;;;;23.90;16.90;;;13.90;65.10;;;13.74;42.08;94425.78;5034806;28;20447;-60
2023/03/05 09:32:51;;;;;;;24.47;15.80;;;13.80;61.80;;;13.61;42.95;94422.81;5035253;28;20491;-61
2023/03/05 09:35:18;;;;;;;25.57;14.70;;;13.70;63.00;;;13.51;43.65;94428.31;5036907;28;20540;-59
2023/03/05 09:37:45;;;;;;;30.43;14.33;;;13.60;64.80;;;13.40;43.75;94421.56;5033956;28;20470;-59
2023/03/05 09:40:16;;;;;;;31.90;16.80;;;13.50;65.30;;;13.28;43.55;94421.03;5040600;28;20453;-61
2023/03/05 09:43:01;;;;;;;24.10;15.00;;;13.30;64.00;;;13.20;43.15;94415.78;5034847;28;20475;-59
2023/03/05 09:45:30;;;;;;;25.17;15.90;;;13.20;63.80;;;13.12;42.59;94413.16;5034002;28;20464;-59
2023/03/05 09:48:06;;;;;;;26.60;16.00;;;13.20;62.30;;;13.03;43.29;94414.16;5034986;28;20901;-57
2023/03/05 09:50:38;;;;;;;28.77;15.23;;;13.10;64.90;;;12.95;42.68;94411.50;5035468;28;20604;-59
2023/03/05 09:53:15;;;;;;;28.07;15.87;;;13.00;62.10;;;12.86;43.15;94408.06;5034819;28;20476;-59
2023/03/05 09:55:43;;;;;;;23.20;14.63;;;12.90;63.70;;;12.81;42.80;94413.84;5037682;28;20435;-58
2023/03/05 09:58:14;;;;;;;28.20;16.20;;;12.90;62.30;;;12.77;42.90;94403.78;5034497;28;21015;-63
2023/03/05 10:00:43;;;;;;;27.47;15.03;;;12.80;62.40;;;12.69;42.86;94397.50;5034665;28;20977;-58
2023/03/05 10:03:17;;;;;;;24.00;14.90;;;12.80;62.70;;;12.63;42.62;94406.06;5033911;28;20489;-57
2023/03/05 10:05:51;;;;;;;23.40;15.70;;;12.70;62.90;;;12.60;42.09;94395.03;5033410;28;20563;-59
2023/03/05 10:08:21;;;;;;;21.60;14.87;;;12.70;61.10;;;12.61;43.05;94391.38;5040179;28;20459;-58
2023/03/05 10:10:50;;;;;;;25.53;14.33;;;12.60;62.60;;;12.58;41.54;94394.34;5036033;28;20515;-58
2023/03/05 10:13:23;;;;;;;20.90;13.20;;;12.60;59.90;;;12.59;42.38;94393.38;5034656;28;20463;-60
2023/03/05 10:15:57;;;;;;;24.10;14.27;;;12.60;61.10;;;12.57;41.72;94395.34;5034732;28;20460;-59
2023/03/05 10:18:30;;;;;;;21.73;12.27;;;12.60;59.90;;;12.56;42.52;94391.88;5030883;28;20443;-59
2023/03/05 10:20:59;;;;;;;19.33;12.80;;;12.60;61.60;;;12.61;43.35;94386.09;5030526;28;20441;-59